Time;durP1;ratioP1;P1;durP2;ratioP2;P2;SDS_P1;SDS_P2;PMS_P1;PMS_P2;Temp;Humidity;BMP_temperature;BMP_pressure;BME280_temperature;BME280_humidity;BME280_pressure;Samples;Min_cycle;Max_cycle;Signal;HPM_P1;HPM_P2
2022/11/25 00:01:27;;;;;;;16.12;8.20;;;;;;;3.63;76.79;100140.28;1684646;83;21062;-55
2022/11/25 00:03:55;;;;;;;17.67;9.18;;;;;;;3.69;76.81;100136.49;1682539;82;22011;-56
2022/11/25 00:06:27;;;;;;;18.98;9.00;;;;;;;3.70;76.87;100134.28;1684371;82;21628;-55
2022/11/25 00:09:06;;;;;;;20.50;11.53;;;;;;;3.65;76.82;100137.12;1693474;82;21017;-56
2022/11/25 00:11:38;;;;;;;18.00;7.90;;;;;;;3.63;76.91;100145.92;1689532;83;21082;-56
2022/11/25 00:14:07;;;;;;;16.55;9.78;;;;;;;3.68;76.72;100151.72;1701423;83;21097;-55
2022/11/25 00:16:34;;;;;;;17.20;9.33;;;;;;;3.71;76.65;100146.34;1681053;82;21135;-55
2022/11/25 00:19:01;;;;;;;26.82;16.25;;;;;;;3.70;76.68;100148.59;1689443;82;21081;-55
2022/11/25 00:21:32;;;;;;;18.77;9.33;;;;;;;3.69;76.69;100149.50;1692206;82;22314;-55
2022/11/25 00:24:01;;;;;;;17.25;9.50;;;;;;;3.64;76.77;100149.75;1691685;82;21059;-55
2022/11/25 00:26:31;;;;;;;18.02;9.35;;;;;;;3.59;76.90;100154.84;1696471;82;21066;-54
2022/11/25 00:28:59;;;;;;;14.58;7.70;;;;;;;3.57;76.96;100150.19;1682781;82;22724;-55
2022/11/25 00:31:28;;;;;;;24.80;16.62;;;;;;;3.62;76.84;100143.80;1687403;82;21655;-55
2022/11/25 00:33:55;;;;;;;14.95;8.50;;;;;;;3.67;76.76;100148.75;1675402;82;21071;-55
2022/11/25 00:36:34;;;;;;;17.35;8.38;;;;;;;3.72;76.73;100154.55;1689278;82;21090;-55
2022/11/25 00:39:04;;;;;;;28.65;18.77;;;;;;;3.69;76.74;100149.50;1654638;85;21048;-55
2022/11/25 00:44:40;;;;;;;18.30;8.95;;;;;;;3.62;76.93;100150.77;1721367;80;21625;-56
2022/11/25 00:47:16;;;;;;;14.30;8.43;;;;;;;3.67;76.77;100149.59;1728170;81;21051;-55
2022/11/25 00:49:45;;;;;;;16.25;7.90;;;;;;;3.70;76.81;100151.20;1735408;82;21102;-54
2022/11/25 00:52:19;;;;;;;19.02;9.75;;;;;;;3.68;76.94;100147.38;1724092;81;21082;-54
2022/11/25 00:54:47;;;;;;;17.73;9.65;;;;;;;3.66;77.07;100146.59;1730213;82;22254;-54
2022/11/25 00:57:14;;;;;;;20.10;10.78;;;;;;;3.64;77.15;100142.41;1730145;81;21016;-55
2022/11/25 00:59:42;;;;;;;17.12;9.15;;;;;;;3.62;77.04;100141.19;1725061;80;21625;-55
2022/11/25 01:02:10;;;;;;;16.97;9.73;;;;;;;3.68;76.82;100145.20;1724451;81;21055;-54
2022/11/25 01:04:51;;;;;;;15.18;8.35;;;;;;;3.72;76.79;100154.55;1723768;81;21075;-55
2022/11/25 01:07:19;;;;;;;18.45;11.48;;;;;;;3.77;76.82;100149.92;1714503;80;21325;-55
2022/11/25 01:09:46;;;;;;;28.62;17.48;;;;;;;3.83;76.87;100151.33;1715509;82;21099;-56
2022/11/25 01:12:13;;;;;;;28.42;17.23;;;;;;;3.84;76.75;100151.72;1714797;82;21063;-56
2022/11/25 01:14:41;;;;;;;17.50;8.45;;;;;;;3.83;76.73;100152.63;1722186;80;21047;-55
2022/11/25 01:17:07;;;;;;;15.83;8.85;;;;;;;3.79;76.71;100149.37;1716851;82;21051;-55
2022/11/25 01:19:38;;;;;;;20.48;10.95;;;;;;;3.78;76.56;100156.78;1722999;80;21257;-54
2022/11/25 01:22:03;;;;;;;27.98;17.90;;;;;;;3.83;76.41;100157.40;1728792;81;21641;-55
2022/11/25 01:24:30;;;;;;;18.02;9.98;;;;;;;3.83;76.30;100161.30;1722350;82;21008;-57
2022/11/25 01:26:57;;;;;;;20.75;9.35;;;;;;;3.77;76.36;100160.33;1723793;81;21165;-55
2022/11/25 01:29:23;;;;;;;15.28;8.75;;;;;;;3.70;76.41;100160.30;1731093;80;21082;-56
2022/11/25 01:31:55;;;;;;;15.30;7.78;;;;;;;3.65;76.57;100164.92;1713088;82;21145;-56
2022/11/25 01:34:24;;;;;;;18.73;11.45;;;;;;;3.67;76.48;100166.50;1713513;81;21043;-55
2022/11/25 01:36:52;;;;;;;15.75;8.33;;;;;;;3.72;76.35;100161.88;1711256;81;21063;-56
2022/11/25 01:39:23;;;;;;;16.67;9.10;;;;;;;3.72;76.34;100165.78;1728344;80;21067;-56
2022/11/25 01:41:49;;;;;;;30.17;18.07;;;;;;;3.71;76.57;100173.20;1728365;81;21003;-56
2022/11/25 01:44:24;;;;;;;22.13;8.45;;;;;;;3.71;76.69;100171.90;1726420;82;21223;-54
2022/11/25 01:47:01;;;;;;;20.82;10.13;;;;;;;3.73;76.58;100166.61;1724160;81;21024;-54
2022/11/25 01:49:39;;;;;;;15.38;8.45;;;;;;;3.77;76.29;100171.22;1714672;81;21095;-55
2022/11/25 01:52:10;;;;;;;21.12;9.03;;;;;;;3.81;76.32;100167.03;1723460;82;21162;-55
2022/11/25 01:55:03;;;;;;;29.57;18.23;;;;;;;3.85;76.27;100167.70;1724450;80;22189;-55
2022/11/25 01:57:40;;;;;;;19.10;7.40;;;;;;;3.84;76.30;100169.47;1718326;82;21205;-55
2022/11/25 02:00:09;;;;;;;27.58;18.85;;;;;;;3.82;76.30;100167.89;1725526;82;21032;-56
2022/11/25 02:02:45;;;;;;;15.15;7.92;;;;;;;3.76;76.34;100163.84;1719741;80;21012;-56
2022/11/25 02:05:14;;;;;;;19.62;10.00;;;;;;;3.77;76.34;100168.61;1707667;82;21066;-55
2022/11/25 02:07:42;;;;;;;19.77;9.70;;;;;;;3.81;76.12;100177.45;1691629;82;21107;-55
2022/11/25 02:10:19;;;;;;;11.57;7.28;;;;;;;3.84;75.97;100173.38;1662779;83;21156;-54
2022/11/25 02:12:47;;;;;;;19.35;9.93;;;;;;;3.85;76.03;100172.46;1731541;80;21130;-54
2022/11/25 02:15:14;;;;;;;18.35;9.73;;;;;;;3.83;76.07;100169.55;1728590;82;21156;-55
2022/11/25 02:17:42;;;;;;;19.55;11.22;;;;;;;3.82;76.25;100171.80;1732984;80;21133;-55
2022/11/25 02:20:18;;;;;;;20.55;10.53;;;;;;;3.81;76.28;100177.91;1722768;82;21089;-54
2022/11/25 02:23:02;;;;;;;22.75;11.40;;;;;;;3.81;76.23;100175.31;1724215;82;21222;-55
2022/11/25 02:25:31;;;;;;;19.77;9.13;;;;;;;3.88;76.06;100181.84;1725374;81;21694;-55
2022/11/25 02:28:04;;;;;;;19.90;11.73;;;;;;;3.92;75.82;100185.98;1727192;80;21090;-55
2022/11/25 02:30:32;;;;;;;33.88;21.37;;;;;;;3.86;75.82;100181.93;1723700;80;21128;-55
2022/11/25 02:32:59;;;;;;;24.75;12.28;;;;;;;3.84;76.06;100188.16;1729203;80;21125;-54
2022/11/25 02:35:35;;;;;;;26.37;14.58;;;;;;;3.84;76.26;100192.06;1701872;81;21233;-56
2022/11/25 02:38:13;;;;;;;23.75;13.30;;;;;;;3.87;76.07;100195.34;1697890;83;21090;-54
2022/11/25 02:40:52;;;;;;;35.38;21.57;;;;;;;3.94;75.82;100198.44;1697188;83;21137;-54
2022/11/25 02:43:19;;;;;;;41.98;23.73;;;;;;;3.93;75.64;100198.05;1689892;83;21080;-54
2022/11/25 02:46:01;;;;;;;20.35;9.43;;;;;;;3.88;75.68;100204.84;1694080;83;21064;-54
2022/11/25 02:48:30;;;;;;;20.85;11.30;;;;;;;3.82;75.86;100212.97;1689197;82;21806;-54
2022/11/25 02:50:57;;;;;;;24.95;14.00;;;;;;;3.72;75.97;100207.89;1689065;82;21477;-55
2022/11/25 02:53:25;;;;;;;20.80;11.40;;;;;;;3.69;76.15;100214.09;1693162;82;21038;-55
2022/11/25 02:55:52;;;;;;;22.32;11.28;;;;;;;3.77;76.06;100221.49;1699532;82;21120;-54
2022/11/25 02:58:19;;;;;;;33.98;19.70;;;;;;;3.84;75.94;100219.39;1692490;82;21092;-54
2022/11/25 03:00:46;;;;;;;20.32;9.93;;;;;;;3.84;75.92;100226.73;1693279;83;21257;-55
2022/11/25 03:03:14;;;;;;;20.20;9.10;;;;;;;3.82;76.05;100228.59;1702561;82;21050;-54
2022/11/25 03:05:41;;;;;;;31.65;20.45;;;;;;;3.81;76.07;100232.09;1701730;82;21081;-55
2022/11/25 03:08:07;;;;;;;18.92;8.70;;;;;;;3.78;76.06;100231.43;1705574;83;21633;-55
2022/11/25 03:10:37;;;;;;;16.55;7.95;;;;;;;3.78;76.03;100231.43;1695913;82;21113;-55
2022/11/25 03:13:05;;;;;;;17.25;9.30;;;;;;;3.83;75.83;100236.78;1698483;82;21140;-55
2022/11/25 03:15:33;;;;;;;31.70;18.65;;;;;;;3.86;75.73;100237.89;1701929;82;21652;-54
2022/11/25 03:18:02;;;;;;;18.37;6.72;;;;;;;3.88;75.62;100241.72;1690297;82;21109;-54
2022/11/25 03:20:29;;;;;;;16.50;9.03;;;;;;;3.85;75.75;100242.74;1688128;82;21078;-54
2022/11/25 03:22:56;;;;;;;19.77;10.53;;;;;;;3.81;75.81;100243.81;1697966;82;21109;-53
2022/11/25 03:25:26;;;;;;;27.02;9.73;;;;;;;3.76;75.85;100241.92;1696827;82;21253;-54
2022/11/25 03:27:55;;;;;;;17.32;9.98;;;;;;;3.81;75.65;100240.37;1696827;82;21066;-55
2022/11/25 03:30:24;;;;;;;28.52;17.30;;;;;;;3.83;75.45;100239.83;1702194;82;21129;-54
2022/11/25 03:32:52;;;;;;;16.45;8.03;;;;;;;3.79;75.58;100239.63;1700451;82;21398;-55
2022/11/25 03:35:20;;;;;;;20.23;9.48;;;;;;;3.74;75.76;100234.67;1718277;82;21047;-54
2022/11/25 03:37:48;;;;;;;16.75;10.05;;;;;;;3.69;75.86;100240.58;1706437;82;22255;-55
2022/11/25 03:40:15;;;;;;;27.05;16.73;;;;;;;3.68;75.90;100244.95;1736432;81;21071;-56
2022/11/25 03:42:44;;;;;;;20.12;9.13;;;;;;;3.72;75.73;100244.33;1727098;81;21075;-56
2022/11/25 03:45:14;;;;;;;24.45;10.45;;;;;;;3.77;75.78;100253.20;1730169;82;21105;-56
2022/11/25 03:47:42;;;;;;;22.42;10.68;;;;;;;3.76;75.89;100256.23;1720925;80;21074;-56
2022/11/25 03:50:12;;;;;;;24.45;11.93;;;;;;;3.76;76.00;100252.80;1730116;82;21240;-56
2022/11/25 03:52:39;;;;;;;26.07;12.60;;;;;;;3.74;76.08;100252.05;1724700;81;21114;-55
2022/11/25 03:55:09;;;;;;;34.53;21.02;;;;;;;3.77;76.04;100252.73;1730867;82;21085;-55
2022/11/25 03:57:36;;;;;;;20.68;10.60;;;;;;;3.86;75.89;100260.48;1723953;82;21526;-57
2022/11/25 04:00:05;;;;;;;35.20;22.00;;;;;;;3.91;75.81;100258.01;1734161;82;21066;-56
2022/11/25 04:02:34;;;;;;;16.17;9.28;;;;;;;3.91;75.76;100258.48;1716127;81;21126;-56
2022/11/25 04:05:04;;;;;;;22.95;9.68;;;;;;;3.85;75.70;100258.80;1725232;81;21020;-55
2022/11/25 04:07:31;;;;;;;20.43;11.43;;;;;;;3.78;75.63;100256.16;1722522;82;21510;-55
2022/11/25 04:09:57;;;;;;;20.97;11.80;;;;;;;3.72;75.75;100259.47;1713583;80;22327;-55
2022/11/25 04:15:14;;;;;;;21.77;9.48;;;;;;;3.81;75.52;100255.53;1720372;82;21301;-56
2022/11/25 04:17:41;;;;;;;22.40;11.85;;;;;;;3.79;75.47;100248.74;1728782;82;21142;-54
2022/11/25 04:20:09;;;;;;;26.10;12.58;;;;;;;3.75;75.53;100251.11;1730665;81;21039;-54
2022/11/25 04:22:36;;;;;;;20.40;11.93;;;;;;;3.69;75.70;100258.33;1728103;81;21430;-54
2022/11/25 04:25:05;;;;;;;33.50;21.45;;;;;;;3.74;75.61;100263.30;1731352;81;21103;-53
2022/11/25 04:27:31;;;;;;;21.52;11.33;;;;;;;3.80;75.59;100268.19;1722828;81;21134;-53
2022/11/25 04:29:59;;;;;;;20.10;10.30;;;;;;;3.86;75.57;100268.30;1707992;82;21016;-54
2022/11/25 04:32:28;;;;;;;35.75;21.85;;;;;;;3.86;75.51;100269.12;1721256;82;21079;-54
2022/11/25 04:34:55;;;;;;;19.20;10.40;;;;;;;3.83;75.35;100272.36;1720443;81;21134;-54
2022/11/25 04:37:22;;;;;;;26.17;11.40;;;;;;;3.79;75.30;100263.88;1721692;82;21549;-53
2022/11/25 04:39:49;;;;;;;34.48;22.10;;;;;;;3.80;75.27;100262.97;1728891;81;21242;-55
2022/11/25 04:42:31;;;;;;;21.80;10.85;;;;;;;3.82;75.17;100266.80;1720068;80;21099;-54
2022/11/25 04:45:01;;;;;;;20.37;12.68;;;;;;;3.78;75.34;100264.80;1723134;82;21122;-53
2022/11/25 04:47:28;;;;;;;24.43;12.20;;;;;;;3.71;75.53;100268.19;1725045;82;21098;-53
2022/11/25 04:49:55;;;;;;;21.80;12.30;;;;;;;3.72;75.38;100275.55;1727218;80;21063;-53
2022/11/25 04:52:22;;;;;;;36.73;21.30;;;;;;;3.75;75.33;100281.91;1721540;80;21262;-53
2022/11/25 04:54:49;;;;;;;24.75;12.00;;;;;;;3.73;75.41;100281.12;1731016;80;21102;-54
2022/11/25 04:57:18;;;;;;;34.15;20.05;;;;;;;3.71;75.65;100286.88;1713209;82;21432;-54
2022/11/25 04:59:45;;;;;;;23.45;9.35;;;;;;;3.70;75.63;100289.12;1726210;82;21359;-53
2022/11/25 05:02:15;;;;;;;21.82;10.98;;;;;;;3.74;75.48;100290.63;1725073;80;21102;-54
2022/11/25 05:04:46;;;;;;;34.18;21.65;;;;;;;3.78;75.33;100293.89;1711776;80;21272;-53
2022/11/25 05:07:15;;;;;;;19.12;10.40;;;;;;;3.75;75.39;100289.71;1731475;80;21055;-54
2022/11/25 05:09:43;;;;;;;19.87;9.93;;;;;;;3.68;75.39;100287.89;1722486;81;21075;-55
2022/11/25 05:12:21;;;;;;;31.55;18.50;;;;;;;3.65;75.45;100298.45;1721859;81;21456;-54
2022/11/25 05:14:48;;;;;;;19.67;10.63;;;;;;;3.66;75.41;100296.22;1729007;81;21067;-53
2022/11/25 05:17:17;;;;;;;18.05;9.50;;;;;;;3.69;75.41;100303.03;1726975;81;21284;-54
2022/11/25 05:19:46;;;;;;;19.32;9.93;;;;;;;3.65;75.52;100302.36;1686715;82;21074;-55
2022/11/25 05:22:15;;;;;;;18.77;12.10;;;;;;;3.60;75.71;100300.46;1654427;83;21648;-54
2022/11/25 05:24:42;;;;;;;20.92;8.83;;;;;;;3.62;75.74;100304.29;1732122;81;21063;-54
2022/11/25 05:27:11;;;;;;;17.85;10.25;;;;;;;3.67;75.63;100307.02;1723642;81;21576;-54
2022/11/25 05:29:37;;;;;;;22.58;10.03;;;;;;;3.67;75.62;100313.99;1712030;82;21131;-54
2022/11/25 05:32:04;;;;;;;19.57;10.05;;;;;;;3.65;75.75;100322.34;1724419;82;20996;-54
2022/11/25 05:34:32;;;;;;;21.27;10.45;;;;;;;3.62;75.82;100323.33;1719568;80;21043;-53
2022/11/25 05:36:59;;;;;;;18.98;9.95;;;;;;;3.66;75.58;100327.91;1730150;80;21100;-54
2022/11/25 05:39:28;;;;;;;18.05;8.75;;;;;;;3.68;75.49;100329.53;1732754;80;21553;-54
2022/11/25 05:42:13;;;;;;;18.23;9.10;;;;;;;3.69;75.55;100336.39;1726082;80;21149;-54
2022/11/25 05:44:40;;;;;;;20.08;11.15;;;;;;;3.64;75.56;100341.00;1731522;82;21059;-56
2022/11/25 05:47:08;;;;;;;21.40;10.50;;;;;;;3.59;75.63;100344.77;1729817;80;21092;-53
2022/11/25 05:50:36;;;;;;;25.32;11.65;;;;;;;3.49;76.20;100347.83;1796253;78;22710;-54
2022/11/25 05:53:04;;;;;;;23.18;10.08;;;;;;;3.64;75.61;100355.78;1747564;80;21085;-54
2022/11/25 05:55:32;;;;;;;21.23;10.93;;;;;;;3.62;75.74;100359.77;1752467;80;21286;-53
2022/11/25 05:57:59;;;;;;;20.30;10.55;;;;;;;3.60;75.85;100364.65;1747489;80;21038;-54
2022/11/25 06:00:29;;;;;;;18.75;10.80;;;;;;;3.56;75.84;100367.04;1745953;80;21268;-54
2022/11/25 06:02:58;;;;;;;25.65;12.18;;;;;;;3.59;75.73;100374.70;1742611;80;21103;-57
2022/11/25 06:05:26;;;;;;;24.27;11.08;;;;;;;3.63;75.70;100373.60;1747922;80;20994;-56
2022/11/25 06:07:53;;;;;;;32.48;21.57;;;;;;;3.59;75.79;100371.63;1748088;80;22290;-55
2022/11/25 06:10:21;;;;;;;21.65;12.98;;;;;;;3.48;76.45;100374.78;1749101;80;21024;-54
2022/11/25 06:12:49;;;;;;;21.77;11.43;;;;;;;3.50;76.51;100374.23;1748460;80;21074;-54
2022/11/25 06:15:16;;;;;;;33.42;21.40;;;;;;;3.58;76.25;100378.20;1749938;80;21105;-55
2022/11/25 06:17:43;;;;;;;17.55;9.38;;;;;;;3.59;76.10;100382.03;1753102;80;21359;-55
2022/11/25 06:20:12;;;;;;;22.50;11.93;;;;;;;3.69;75.66;100376.73;1755513;80;21115;-55
2022/11/25 06:22:39;;;;;;;18.62;8.85;;;;;;;3.65;75.63;100380.43;1754133;80;21045;-55
2022/11/25 06:25:07;;;;;;;37.58;21.50;;;;;;;3.60;75.85;100377.22;1749352;80;21058;-55
2022/11/25 06:27:35;;;;;;;25.75;10.82;;;;;;;3.66;75.68;100385.99;1747982;80;21132;-55
2022/11/25 06:30:05;;;;;;;19.65;10.70;;;;;;;3.71;75.51;100384.47;1754992;80;21051;-57
2022/11/25 06:32:32;;;;;;;21.57;10.35;;;;;;;3.72;75.67;100383.55;1747998;80;21299;-55
2022/11/25 06:35:00;;;;;;;36.33;22.10;;;;;;;3.72;75.80;100393.50;1747448;80;21538;-55
2022/11/25 06:37:32;;;;;;;19.15;10.75;;;;;;;3.69;75.81;100387.61;1751954;81;21114;-55
2022/11/25 06:39:59;;;;;;;23.80;11.55;;;;;;;3.67;75.68;100390.77;1752806;80;21093;-57
2022/11/25 06:42:25;;;;;;;34.38;20.52;;;;;;;3.68;75.72;100393.29;1746842;80;21082;-56
2022/11/25 06:44:52;;;;;;;19.48;10.43;;;;;;;3.74;75.75;100393.42;1752298;80;21232;-55
2022/11/25 06:47:18;;;;;;;38.78;21.52;;;;;;;3.76;75.72;100393.34;1752225;80;21086;-55
2022/11/25 06:49:45;;;;;;;22.30;10.35;;;;;;;3.76;75.94;100399.85;1742837;80;21047;-55
2022/11/25 06:52:12;;;;;;;24.05;11.60;;;;;;;3.78;76.02;100394.09;1742494;80;21083;-55
2022/11/25 06:54:40;;;;;;;15.63;9.00;;;;;;;3.74;75.95;100397.33;1745597;80;21110;-56
2022/11/25 06:57:11;;;;;;;30.08;11.55;;;;;;;3.68;75.79;100401.53;1741016;80;21888;-57
2022/11/25 06:59:37;;;;;;;21.62;10.80;;;;;;;3.58;75.91;100399.02;1742523;80;21075;-56
2022/11/25 07:02:04;;;;;;;15.98;8.80;;;;;;;3.70;75.63;100401.85;1741384;80;21070;-56
2022/11/25 07:04:33;;;;;;;19.45;9.18;;;;;;;3.75;75.72;100409.43;1738259;80;21151;-54
2022/11/25 07:07:00;;;;;;;28.83;18.73;;;;;;;3.77;75.88;100408.88;1742192;80;21149;-55
2022/11/25 07:09:26;;;;;;;19.95;8.90;;;;;;;3.79;75.92;100419.22;1742558;80;21244;-56
2022/11/25 07:11:53;;;;;;;19.20;8.88;;;;;;;3.75;75.98;100417.67;1699312;82;21002;-56
2022/11/25 07:14:19;;;;;;;17.98;7.97;;;;;;;3.67;76.04;100416.31;1699280;82;21054;-56
2022/11/25 07:16:46;;;;;;;25.52;15.58;;;;;;;3.69;75.63;100421.45;1701246;82;21107;-56
2022/11/25 07:19:15;;;;;;;16.73;7.67;;;;;;;3.71;75.62;100416.99;1738939;80;21043;-55
2022/11/25 07:21:44;;;;;;;17.57;9.55;;;;;;;3.70;75.56;100419.23;1741525;80;21864;-57
2022/11/25 07:24:13;;;;;;;15.15;8.80;;;;;;;3.63;75.60;100421.74;1742897;80;21432;-55
2022/11/25 07:26:41;;;;;;;18.75;8.70;;;;;;;3.57;75.66;100425.98;1744490;80;21099;-56
2022/11/25 07:29:11;;;;;;;15.32;7.58;;;;;;;3.52;75.78;100433.53;1733378;81;21046;-55
2022/11/25 07:31:40;;;;;;;28.73;17.12;;;;;;;3.59;75.67;100439.74;1693498;82;21085;-55
2022/11/25 07:34:10;;;;;;;13.48;7.12;;;;;;;3.65;75.50;100439.45;1675076;83;21172;-57
2022/11/25 07:36:37;;;;;;;16.17;7.55;;;;;;;3.70;75.51;100445.26;1682719;82;21083;-66
2022/11/25 07:39:08;;;;;;;26.35;16.70;;;;;;;3.71;75.67;100441.72;1701282;82;21636;-68
2022/11/25 07:41:34;;;;;;;14.75;8.25;;;;;;;3.70;75.73;100450.47;1697096;82;21164;-67
2022/11/25 07:44:03;;;;;;;21.00;8.80;;;;;;;3.68;75.76;100451.84;1700968;82;21099;-68
2022/11/25 07:46:39;;;;;;;20.32;8.78;;;;;;;3.72;75.60;100455.13;1699774;83;21004;-66
2022/11/25 07:49:10;;;;;;;15.03;8.95;;;;;;;3.77;75.38;100455.73;1699901;82;21074;-67
2022/11/25 07:51:49;;;;;;;19.07;9.78;;;;;;;3.83;75.24;100458.47;1709748;82;21505;-68
2022/11/25 07:54:16;;;;;;;16.10;9.10;;;;;;;3.79;75.29;100456.49;1714560;82;21421;-67
2022/11/25 07:56:43;;;;;;;17.12;8.53;;;;;;;3.75;75.16;100464.09;1709860;82;21113;-67
2022/11/25 07:59:16;;;;;;;20.77;8.53;;;;;;;3.68;75.25;100463.55;1713230;82;21254;-68
2022/11/25 08:01:42;;;;;;;29.40;15.90;;;;;;;3.64;75.29;100466.38;1712022;83;21066;-68
2022/11/25 08:04:11;;;;;;;15.15;8.45;;;;;;;3.67;75.00;100462.33;1709941;82;21116;-68
2022/11/25 08:06:41;;;;;;;17.37;8.15;;;;;;;3.67;74.87;100455.81;1711743;82;21093;-68
2022/11/25 08:09:09;;;;;;;18.10;10.53;;;;;;;3.63;75.02;100463.38;1694453;84;21162;-67
2022/11/25 08:11:36;;;;;;;24.60;11.08;;;;;;;3.57;75.27;100465.00;1690277;83;21235;-67
2022/11/25 08:14:03;;;;;;;16.05;8.40;;;;;;;3.56;75.41;100463.31;1690052;83;21120;-65
2022/11/25 08:16:30;;;;;;;22.17;10.25;;;;;;;3.59;75.37;100465.30;1686902;84;23042;-62
2022/11/25 08:19:00;;;;;;;24.07;10.60;;;;;;;3.63;75.34;100460.78;1690593;82;21163;-60
2022/11/25 08:21:26;;;;;;;20.77;10.23;;;;;;;3.61;75.47;100465.22;1684512;83;21860;-63
2022/11/25 08:23:53;;;;;;;20.70;9.85;;;;;;;3.61;75.35;100466.05;1680569;83;21276;-62
2022/11/25 08:26:25;;;;;;;18.12;9.63;;;;;;;3.60;75.36;100463.09;1685961;83;21087;-64
2022/11/25 08:28:53;;;;;;;28.75;18.37;;;;;;;3.62;75.24;100468.22;1684101;83;21319;-62
2022/11/25 08:31:24;;;;;;;20.23;10.43;;;;;;;3.65;75.22;100470.20;1673806;83;21019;-65
2022/11/25 08:33:51;;;;;;;21.68;10.55;;;;;;;3.64;75.36;100468.98;1712600;82;21139;-64
2022/11/25 08:36:18;;;;;;;36.00;22.80;;;;;;;3.63;75.56;100475.09;1702781;83;22254;-65
2022/11/25 08:38:48;;;;;;;23.47;10.23;;;;;;;3.62;75.76;100472.13;1694464;83;21217;-66
2022/11/25 08:41:21;;;;;;;13.10;7.42;;;;;;;3.65;75.68;100478.48;1686149;82;21063;-65
2022/11/25 08:43:47;;;;;;;16.73;8.20;;;;;;;3.73;75.45;100481.52;1688918;84;21418;-64
2022/11/25 08:46:19;;;;;;;19.87;9.95;;;;;;;3.81;75.33;100492.39;1700004;83;21071;-65
2022/11/25 08:48:46;;;;;;;23.52;9.65;;;;;;;3.84;75.13;100481.83;1694141;83;21161;-65
2022/11/25 08:51:22;;;;;;;35.52;21.85;;;;;;;3.79;75.19;100478.62;1689547;83;21809;-70
2022/11/25 08:53:54;;;;;;;20.55;11.80;;;;;;;3.75;75.10;100471.89;1688084;83;21033;-68
2022/11/25 08:56:20;;;;;;;21.75;9.58;;;;;;;3.70;75.28;100476.48;1687669;83;21513;-69
2022/11/25 08:58:50;;;;;;;17.67;10.28;;;;;;;3.74;75.15;100475.88;1744837;80;21112;-68
2022/11/25 09:01:17;;;;;;;19.60;10.53;;;;;;;3.81;75.10;100477.23;1746632;80;21137;-67
2022/11/25 09:03:47;;;;;;;20.43;11.50;;;;;;;3.78;75.13;100473.02;1745991;80;21015;-66
2022/11/25 09:06:14;;;;;;;30.48;19.87;;;;;;;3.75;75.29;100470.59;1745671;80;20993;-67
2022/11/25 09:08:41;;;;;;;17.23;8.35;;;;;;;3.70;75.29;100481.22;1745039;80;21110;-68
2022/11/25 09:11:12;;;;;;;18.62;8.88;;;;;;;3.70;75.24;100481.70;1739812;80;21086;-65
2022/11/25 09:13:39;;;;;;;22.37;11.33;;;;;;;3.72;75.10;100484.59;1741750;82;21232;-67
2022/11/25 09:16:07;;;;;;;16.25;9.20;;;;;;;3.75;75.18;100481.44;1742309;80;21533;-67
2022/11/25 09:18:36;;;;;;;32.70;20.88;;;;;;;3.78;75.25;100482.13;1747535;80;21091;-68
2022/11/25 09:21:10;;;;;;;20.52;10.80;;;;;;;3.78;75.23;100486.03;1749740;80;21067;-68
2022/11/25 09:23:38;;;;;;;23.45;12.13;;;;;;;3.83;75.16;100482.77;1746241;82;21043;-67
2022/11/25 09:26:05;;;;;;;19.20;10.85;;;;;;;3.82;75.06;100483.67;1748069;80;21250;-67
2022/11/25 09:28:33;;;;;;;21.35;11.95;;;;;;;3.81;74.83;100485.88;1739069;80;21070;-67
2022/11/25 09:31:07;;;;;;;20.72;11.30;;;;;;;3.84;74.96;100490.94;1746977;80;20993;-66
2022/11/25 09:33:35;;;;;;;21.30;10.48;;;;;;;3.96;74.73;100484.73;1741129;80;21118;-66
2022/11/25 09:36:03;;;;;;;28.50;19.60;;;;;;;3.97;74.65;100481.20;1750906;80;21086;-66
2022/11/25 09:38:29;;;;;;;16.12;9.03;;;;;;;3.93;74.57;100477.08;1749376;80;21851;-66
2022/11/25 09:47:44;;;;;;;20.77;10.35;;;;;;;3.72;75.10;100478.55;1732914;80;21078;-69
2022/11/25 09:50:31;;;;;;;20.57;9.55;;;;;;;3.82;75.12;100483.67;1729984;80;21490;-66
2022/11/25 09:53:21;;;;;;;19.42;9.18;;;;;;;3.88;75.27;100479.47;1691047;82;21246;-67
2022/11/25 09:55:51;;;;;;;22.37;9.75;;;;;;;3.89;75.21;100475.09;1704055;82;21478;-67
2022/11/25 09:58:37;;;;;;;19.45;10.60;;;;;;;3.82;75.05;100480.23;1706141;82;21098;-68
2022/11/25 10:01:13;;;;;;;21.60;9.13;;;;;;;3.81;74.97;100478.07;1746131;80;21151;-69
2022/11/25 10:03:47;;;;;;;30.95;18.30;;;;;;;3.87;74.93;100484.28;1745773;80;21058;-67
2022/11/25 10:06:23;;;;;;;18.45;9.55;;;;;;;3.94;74.61;100482.68;1743101;80;21322;-67
2022/11/25 10:08:54;;;;;;;19.98;10.03;;;;;;;3.93;74.49;100490.09;1737984;81;21065;-66
2022/11/25 10:11:38;;;;;;;21.77;9.95;;;;;;;3.87;74.45;100489.95;1739577;80;21069;-67
2022/11/25 10:14:29;;;;;;;17.42;9.00;;;;;;;3.84;74.36;100487.50;1693829;82;21038;-67
2022/11/25 10:17:16;;;;;;;20.82;10.20;;;;;;;3.78;74.30;100489.94;1732361;81;21049;-68
2022/11/25 10:20:08;;;;;;;23.47;9.58;;;;;;;3.79;74.13;100489.50;1740197;80;21974;-68
2022/11/25 10:22:37;;;;;;;15.58;9.68;;;;;;;3.71;74.29;100482.89;1740314;82;21025;-67
2022/11/25 10:25:24;;;;;;;16.32;9.50;;;;;;;3.69;74.65;100480.83;1735919;80;21063;-67
2022/11/25 10:28:01;;;;;;;18.90;9.78;;;;;;;3.70;74.64;100486.91;1700938;82;21137;-66
2022/11/25 10:30:59;;;;;;;18.40;10.30;;;;;;;3.76;74.44;100484.44;1738263;80;21663;-68
2022/11/25 10:33:36;;;;;;;16.75;9.95;;;;;;;3.80;74.32;100484.66;1737318;80;21989;-65
2022/11/25 10:36:21;;;;;;;20.75;9.33;;;;;;;3.77;74.37;100477.86;1741351;80;20992;-67
2022/11/25 10:39:10;;;;;;;18.80;9.30;;;;;;;3.76;74.52;100479.23;1735040;80;21063;-69
2022/11/25 10:42:00;;;;;;;16.48;8.88;;;;;;;3.74;74.54;100483.21;1734301;82;21122;-68
2022/11/25 10:44:37;;;;;;;14.83;7.75;;;;;;;3.76;74.42;100496.98;1731504;80;21099;-68
2022/11/25 10:47:35;;;;;;;13.75;7.00;;;;;;;3.85;74.33;100493.08;1703143;82;21835;-68
2022/11/25 10:50:28;;;;;;;17.10;7.83;;;;;;;3.92;74.22;100499.67;1694511;83;20995;-68
2022/11/25 10:53:23;;;;;;;13.13;7.50;;;;;;;3.91;74.03;100502.72;1701576;84;21050;-62
2022/11/25 10:56:00;;;;;;;15.13;7.25;;;;;;;3.87;74.08;100508.18;1741377;82;21116;-64
2022/11/25 10:58:35;;;;;;;13.78;7.10;;;;;;;3.85;74.11;100510.86;1739079;80;21535;-70
2022/11/25 11:01:06;;;;;;;12.57;7.83;;;;;;;3.91;73.84;100510.53;1741908;80;21716;-68
2022/11/25 11:03:33;;;;;;;13.98;6.67;;;;;;;3.95;73.77;100507.34;1741518;81;21053;-69
2022/11/25 11:05:59;;;;;;;13.85;7.30;;;;;;;3.95;73.75;100507.78;1742512;81;21055;-68
2022/11/25 11:08:36;;;;;;;21.00;14.25;;;;;;;3.90;73.95;100511.47;1737588;80;21048;-69
2022/11/25 11:11:20;;;;;;;12.90;7.12;;;;;;;3.91;74.07;100520.11;1738459;80;21492;-68
2022/11/25 11:13:49;;;;;;;18.25;13.03;;;;;;;3.95;74.06;100519.05;1699269;82;21133;-67
2022/11/25 11:16:36;;;;;;;14.70;6.17;;;;;;;4.07;73.71;100517.59;1736175;80;21509;-69
2022/11/25 11:19:03;;;;;;;13.18;6.67;;;;;;;4.08;73.47;100520.55;1733124;80;21047;-69
2022/11/25 11:21:34;;;;;;;14.78;7.85;;;;;;;4.06;73.61;100519.80;1734541;81;21051;-69
2022/11/25 11:24:02;;;;;;;16.48;9.65;;;;;;;3.99;73.53;100519.27;1691390;82;20967;-67
2022/11/25 11:26:33;;;;;;;19.15;12.53;;;;;;;3.93;73.53;100522.17;1701999;82;21208;-70
2022/11/25 11:29:13;;;;;;;10.70;6.40;;;;;;;3.94;73.41;100521.73;1711888;82;21035;-69
2022/11/25 11:31:46;;;;;;;12.73;6.62;;;;;;;3.98;73.38;100520.17;1712452;82;21071;-69
2022/11/25 11:34:59;;;;;;;21.35;13.70;;;;;;;4.01;73.37;100519.20;1696178;83;21727;-69
2022/11/25 11:37:37;;;;;;;23.52;15.90;;;;;;;3.97;73.64;100521.55;1645325;82;21583;-68
2022/11/25 11:40:38;;;;;;;16.80;8.25;;;;;;;3.95;73.49;100521.66;1701951;83;21664;-68
2022/11/25 11:43:28;;;;;;;17.02;7.42;;;;;;;3.95;73.49;100529.91;1704120;83;21570;-69
2022/11/25 11:46:10;;;;;;;18.80;8.45;;;;;;;3.98;73.30;100535.80;1704635;82;21568;-69
2022/11/25 11:48:51;;;;;;;14.95;6.90;;;;;;;3.98;73.37;100540.17;1679109;83;21563;-66
2022/11/25 11:51:42;;;;;;;19.02;8.85;;;;;;;3.88;73.24;100537.18;1691893;83;21029;-68
2022/11/25 11:54:48;;;;;;;16.82;8.15;;;;;;;3.77;73.25;100539.02;1675826;85;21271;-68